createdAt,value
2023-12-02T00:00:26.145Z,14.97
2023-12-02T00:02:53.294Z,13.23
2023-12-02T00:05:20.159Z,14.07
2023-12-02T00:07:46.956Z,11.83
2023-12-02T00:10:13.765Z,13.17
2023-12-02T00:12:40.601Z,13.07
2023-12-02T00:15:08.404Z,11.40
2023-12-02T00:17:35.427Z,12.07
2023-12-02T00:20:02.635Z,16.27
2023-12-02T00:22:30.949Z,13.10
2023-12-02T00:24:57.950Z,16.67
2023-12-02T00:27:24.680Z,12.70
2023-12-02T00:29:51.568Z,13.03
2023-12-02T00:32:28.240Z,14.90
2023-12-02T00:34:57.713Z,15.03
2023-12-02T00:37:24.643Z,15.03
2023-12-02T00:39:51.428Z,10.37
2023-12-02T00:42:18.224Z,15.80
2023-12-02T00:44:45.077Z,15.07
2023-12-02T00:47:11.836Z,14.77
2023-12-02T00:49:38.598Z,12.83
2023-12-02T00:52:05.486Z,13.13
2023-12-02T00:54:35.259Z,11.77
2023-12-02T00:57:02.244Z,11.93
2023-12-02T00:59:29.069Z,13.80
2023-12-02T01:01:55.849Z,12.20
2023-12-02T01:04:22.759Z,13.43
2023-12-02T01:06:49.501Z,14.67
2023-12-02T01:09:16.566Z,14.63
2023-12-02T01:11:43.480Z,13.47
2023-12-02T01:14:10.389Z,12.73
2023-12-02T01:16:37.090Z,12.37
2023-12-02T01:19:03.818Z,14.43
2023-12-02T01:21:31.137Z,16.77
2023-12-02T01:23:58.855Z,14.43
2023-12-02T01:26:25.736Z,16.37
2023-12-02T01:28:52.536Z,16.10
2023-12-02T01:31:19.440Z,14.50
2023-12-02T01:33:46.227Z,12.03
2023-12-02T01:36:15.940Z,10.90
2023-12-02T01:38:43.315Z,12.67
2023-12-02T01:41:10.079Z,12.83
2023-12-02T01:43:38.728Z,15.10
2023-12-02T01:46:05.890Z,14.50
2023-12-02T01:48:37.180Z,12.70
2023-12-02T01:51:05.432Z,23.07
2023-12-02T01:53:32.496Z,13.00
2023-12-02T01:55:59.825Z,13.00
2023-12-02T01:58:27.387Z,21.97
2023-12-02T02:00:54.233Z,16.83
2023-12-02T02:03:21.134Z,15.60
2023-12-02T02:05:48.356Z,10.97
2023-12-02T02:08:15.439Z,13.47
2023-12-02T02:10:42.144Z,11.87
2023-12-02T02:13:08.886Z,10.90
2023-12-02T02:15:35.943Z,10.13
2023-12-02T02:18:03.028Z,9.97
2023-12-02T02:20:53.978Z,11.23
2023-12-02T02:23:22.817Z,10.63
2023-12-02T02:25:52.659Z,10.23
2023-12-02T02:28:24.595Z,9.03
2023-12-02T02:30:51.882Z,8.97
2023-12-02T02:33:19.524Z,9.87
2023-12-02T02:35:46.499Z,10.33
2023-12-02T02:38:13.340Z,10.63
2023-12-02T02:40:40.443Z,9.13
2023-12-02T02:43:07.301Z,12.13
2023-12-02T02:45:34.213Z,12.07
2023-12-02T02:48:01.139Z,13.10
2023-12-02T02:50:28.876Z,10.50
2023-12-02T02:52:55.623Z,11.60
2023-12-02T02:55:22.300Z,14.63
2023-12-02T02:57:49.023Z,12.70
2023-12-02T03:00:16.235Z,15.27
2023-12-02T03:02:43.289Z,10.77
2023-12-02T03:05:10.065Z,10.43
2023-12-02T03:07:37.045Z,12.90
2023-12-02T03:10:04.108Z,14.87
2023-12-02T03:12:32.138Z,16.03
2023-12-02T03:14:58.951Z,11.63
2023-12-02T03:17:25.722Z,11.40
2023-12-02T03:19:52.984Z,12.07
2023-12-02T03:22:19.992Z,9.30
2023-12-02T03:24:47.445Z,16.23
2023-12-02T03:27:14.260Z,11.70
2023-12-02T03:29:40.977Z,11.20
2023-12-02T03:32:07.702Z,9.13
2023-12-02T03:34:34.828Z,10.27
2023-12-02T03:37:01.847Z,9.13
2023-12-02T03:39:28.647Z,8.70
2023-12-02T03:41:55.470Z,10.63
2023-12-02T03:44:22.271Z,7.47
2023-12-02T03:46:49.044Z,7.47
2023-12-02T03:49:15.930Z,9.00
2023-12-02T03:51:42.762Z,8.30
2023-12-02T03:54:09.613Z,7.63
2023-12-02T03:56:38.551Z,8.10
2023-12-02T03:59:05.314Z,6.83
2023-12-02T04:01:32.608Z,8.50
2023-12-02T04:03:59.351Z,7.23
2023-12-02T04:06:26.154Z,6.67
2023-12-02T04:08:52.899Z,10.20
2023-12-02T04:11:19.634Z,9.17
2023-12-02T04:13:46.385Z,9.47
2023-12-02T04:16:13.403Z,8.17
2023-12-02T04:18:40.340Z,8.43
2023-12-02T04:21:09.549Z,10.57
2023-12-02T04:23:38.208Z,9.87
2023-12-02T04:26:07.763Z,8.47
2023-12-02T04:28:35.013Z,11.80
2023-12-02T04:31:01.782Z,6.73
2023-12-02T04:33:28.552Z,8.57
2023-12-02T04:35:55.446Z,8.70
2023-12-02T04:38:22.602Z,8.77
2023-12-02T04:40:49.422Z,9.07
2023-12-02T04:43:16.170Z,8.80
2023-12-02T04:45:42.999Z,6.77
2023-12-02T04:48:09.844Z,7.43
2023-12-02T04:50:36.570Z,7.57
2023-12-02T04:53:03.264Z,8.87
2023-12-02T04:55:30.016Z,8.43
2023-12-02T04:57:56.742Z,7.50
2023-12-02T05:00:23.503Z,9.57
2023-12-02T05:02:50.313Z,8.23
2023-12-02T05:05:18.062Z,8.00
2023-12-02T05:07:45.628Z,8.13
2023-12-02T05:10:12.563Z,7.57
2023-12-02T05:12:39.488Z,7.77
2023-12-02T05:15:06.766Z,7.53
2023-12-02T05:17:33.919Z,7.43
2023-12-02T05:20:00.929Z,7.50
2023-12-02T05:22:27.759Z,8.00
2023-12-02T05:24:54.524Z,8.77
2023-12-02T05:27:21.307Z,9.20
2023-12-02T05:29:48.099Z,7.30
2023-12-02T05:32:14.991Z,7.33
2023-12-02T05:34:41.706Z,10.00
2023-12-02T05:37:08.447Z,7.83
2023-12-02T05:39:36.403Z,7.20
2023-12-02T05:42:03.430Z,8.03
2023-12-02T05:44:30.240Z,7.83
2023-12-02T05:46:57.062Z,7.77
2023-12-02T05:49:23.865Z,5.33
2023-12-02T05:51:50.717Z,6.50
2023-12-02T05:54:17.495Z,7.27
2023-12-02T05:56:44.226Z,7.53
2023-12-02T05:59:10.946Z,7.63
2023-12-02T06:01:37.763Z,7.67
2023-12-02T06:04:04.835Z,7.00
2023-12-02T06:06:32.273Z,8.33
2023-12-02T06:08:59.142Z,8.30
2023-12-02T06:11:25.900Z,8.37
2023-12-02T06:13:52.661Z,5.60
2023-12-02T06:16:19.418Z,5.93
2023-12-02T06:18:46.319Z,5.97
2023-12-02T06:21:13.669Z,7.73
2023-12-02T06:23:40.432Z,5.67
2023-12-02T06:26:07.747Z,5.67
2023-12-02T06:28:34.491Z,7.23
2023-12-02T06:31:01.191Z,6.33
2023-12-02T06:33:28.086Z,5.10
2023-12-02T06:35:54.860Z,4.93
2023-12-02T06:38:23.124Z,5.53
2023-12-02T06:40:50.127Z,5.20
2023-12-02T06:43:17.440Z,6.87
2023-12-02T06:45:44.256Z,5.03
2023-12-02T06:48:11.195Z,5.47
2023-12-02T06:50:38.005Z,4.73
2023-12-02T06:53:04.860Z,6.13
2023-12-02T06:55:34.346Z,5.30
2023-12-02T06:58:01.507Z,6.23
2023-12-02T07:00:28.298Z,4.80
2023-12-02T07:02:55.177Z,4.67
2023-12-02T07:05:21.971Z,4.53
2023-12-02T07:07:48.689Z,8.43
2023-12-02T07:10:15.680Z,4.27
2023-12-02T07:12:42.548Z,4.90
2023-12-02T07:15:09.880Z,4.23
2023-12-02T07:17:36.984Z,6.33
2023-12-02T07:20:04.583Z,3.93
2023-12-02T07:22:31.654Z,6.30
2023-12-02T07:24:58.943Z,4.07
2023-12-02T07:27:28.925Z,4.80
2023-12-02T07:32:26.392Z,3.53
2023-12-02T07:34:53.147Z,6.90
2023-12-02T07:37:19.901Z,4.00
2023-12-02T07:39:46.789Z,4.47
2023-12-02T07:42:13.616Z,5.33
2023-12-02T07:44:40.347Z,5.23
2023-12-02T07:47:07.301Z,5.50
2023-12-02T07:49:34.042Z,5.10
2023-12-02T07:52:00.850Z,5.33
2023-12-02T07:54:27.744Z,5.33
2023-12-02T07:56:54.529Z,4.77
2023-12-02T07:59:21.262Z,5.57
2023-12-02T08:01:48.244Z,5.93
2023-12-02T08:04:15.056Z,5.03
2023-12-02T08:06:41.735Z,3.73
2023-12-02T08:09:08.402Z,5.27
2023-12-02T08:11:35.101Z,6.13
2023-12-02T08:14:01.910Z,5.37
2023-12-02T08:16:29.599Z,5.17
2023-12-02T08:18:56.483Z,4.87
2023-12-02T08:21:23.444Z,7.10
2023-12-02T08:23:50.694Z,4.97
2023-12-02T08:26:17.424Z,6.37
2023-12-02T08:28:47.388Z,7.47
2023-12-02T08:31:14.458Z,5.07
2023-12-02T08:33:41.499Z,4.93
2023-12-02T08:36:09.067Z,4.60
2023-12-02T08:38:37.371Z,4.40
2023-12-02T08:41:04.718Z,5.63
2023-12-02T08:43:31.942Z,4.63
2023-12-02T08:45:58.671Z,5.87
2023-12-02T08:48:25.829Z,6.53
2023-12-02T08:50:52.847Z,5.90
2023-12-02T08:53:19.667Z,7.00
2023-12-02T08:55:46.497Z,5.33
2023-12-02T08:58:13.258Z,5.37
2023-12-02T09:00:40.023Z,5.93
2023-12-02T09:03:06.789Z,5.23
2023-12-02T09:05:33.544Z,5.57
2023-12-02T09:08:02.417Z,8.03
2023-12-02T09:10:29.385Z,5.50
2023-12-02T09:12:56.209Z,4.60
2023-12-02T09:15:23.035Z,4.73
2023-12-02T09:18:12.919Z,8.73
2023-12-02T09:20:52.041Z,8.47
2023-12-02T09:23:19.613Z,4.53
2023-12-02T09:25:47.297Z,5.40
2023-12-02T09:28:17.275Z,6.40
2023-12-02T09:31:06.911Z,7.53
2023-12-02T09:33:37.175Z,4.97
2023-12-02T09:36:04.799Z,4.67
2023-12-02T09:38:33.384Z,7.87
2023-12-02T09:41:25.191Z,8.53
2023-12-02T09:44:25.060Z,8.00
2023-12-02T09:47:18.892Z,5.67
2023-12-02T09:50:09.149Z,4.77
2023-12-02T09:53:07.274Z,4.23
2023-12-02T09:55:39.681Z,6.50
2023-12-02T09:58:28.835Z,4.93
2023-12-02T10:01:12.995Z,5.23
2023-12-02T10:03:56.283Z,5.30
2023-12-02T10:06:50.406Z,5.33
2023-12-02T10:09:36.830Z,5.45
2023-12-02T10:12:38.549Z,6.20
2023-12-02T10:15:06.864Z,6.03
2023-12-02T10:17:41.331Z,7.73
2023-12-02T10:20:13.746Z,6.60
2023-12-02T10:22:46.555Z,5.10
2023-12-02T10:25:29.972Z,5.03
2023-12-02T10:28:06.507Z,5.27
2023-12-02T10:30:35.652Z,6.13
2023-12-02T10:33:26.282Z,5.83
2023-12-02T10:35:57.091Z,6.57
2023-12-02T10:38:33.443Z,10.40
2023-12-02T10:41:14.010Z,6.10
2023-12-02T10:43:43.719Z,5.83
2023-12-02T10:46:11.989Z,5.97
2023-12-02T10:48:42.761Z,8.13
2023-12-02T10:51:10.691Z,7.30
2023-12-02T10:53:38.997Z,10.10
2023-12-02T10:56:14.615Z,5.07
2023-12-02T10:58:46.204Z,9.40
2023-12-02T11:01:19.575Z,6.17
2023-12-02T11:03:56.274Z,5.67
2023-12-02T11:06:32.426Z,8.20
2023-12-02T11:09:25.937Z,5.60
2023-12-02T11:12:10.422Z,6.13
2023-12-02T11:14:41.075Z,5.17
2023-12-02T11:17:24.310Z,5.50
2023-12-02T11:20:21.308Z,6.87
2023-12-02T11:23:25.972Z,11.10
2023-12-02T11:26:12.751Z,9.53
2023-12-02T11:29:19.140Z,11.87
2023-12-02T11:32:12.582Z,5.97
2023-12-02T11:35:08.906Z,5.77
2023-12-02T11:37:50.671Z,6.50
2023-12-02T11:40:46.885Z,6.03
2023-12-02T11:43:35.328Z,5.77
2023-12-02T11:46:15.715Z,4.17
2023-12-02T11:48:46.885Z,5.10
2023-12-02T11:51:24.129Z,6.30
2023-12-02T11:54:08.624Z,12.70
2023-12-02T11:56:35.767Z,4.63
2023-12-02T11:59:17.469Z,5.70
2023-12-02T12:02:16.814Z,6.17
2023-12-02T12:05:11.416Z,6.53
2023-12-02T12:08:16.039Z,7.53
2023-12-02T12:10:43.999Z,4.50
2023-12-02T12:13:12.870Z,4.77
2023-12-02T12:15:40.200Z,6.23
2023-12-02T12:18:07.219Z,8.03
2023-12-02T12:20:34.095Z,6.97
2023-12-02T12:23:01.981Z,9.30
2023-12-02T12:25:34.298Z,10.23
2023-12-02T12:28:06.150Z,8.30
2023-12-02T12:30:44.140Z,6.60
2023-12-02T12:33:30.288Z,9.70
2023-12-02T12:35:57.201Z,9.17
2023-12-02T12:38:23.960Z,8.87
2023-12-02T12:40:50.823Z,8.23
2023-12-02T12:43:18.695Z,5.47
2023-12-02T12:45:50.679Z,7.60
2023-12-02T12:48:27.202Z,6.13
2023-12-02T12:51:00.323Z,5.80
2023-12-02T12:53:31.388Z,5.70
2023-12-02T12:56:08.870Z,6.37
2023-12-02T12:58:54.983Z,8.60
2023-12-02T13:01:27.881Z,7.63
2023-12-02T13:04:05.381Z,7.63
2023-12-02T13:06:44.879Z,7.17
2023-12-02T13:09:13.574Z,5.67
2023-12-02T13:12:01.301Z,8.10
2023-12-02T13:14:34.866Z,7.00
2023-12-02T13:17:01.996Z,5.97
2023-12-02T13:19:30.951Z,6.97
2023-12-02T13:22:03.888Z,7.07
2023-12-02T13:24:37.330Z,5.73
2023-12-02T13:27:06.246Z,4.93
2023-12-02T13:29:35.657Z,6.40
2023-12-02T13:32:02.696Z,8.03
2023-12-02T13:34:50.497Z,7.60
2023-12-02T13:37:27.790Z,5.40
2023-12-02T13:40:00.030Z,6.10
2023-12-02T13:42:37.347Z,7.57
2023-12-02T13:45:08.538Z,5.70
2023-12-02T13:47:57.171Z,5.97
2023-12-02T13:50:26.718Z,5.77
2023-12-02T13:53:03.062Z,7.07
2023-12-02T13:55:43.333Z,5.30
2023-12-02T13:58:23.966Z,6.70
2023-12-02T14:01:17.898Z,5.70
2023-12-02T14:04:02.101Z,5.10
2023-12-02T14:06:59.875Z,6.70
2023-12-02T14:09:28.648Z,7.30
2023-12-02T14:12:24.598Z,4.73
2023-12-02T14:15:10.622Z,9.37
2023-12-02T14:18:15.527Z,5.97
2023-12-02T14:21:10.131Z,6.43
2023-12-02T14:24:08.859Z,4.90
2023-12-02T14:26:57.516Z,5.43
2023-12-02T14:29:39.042Z,5.77
2023-12-02T14:32:45.309Z,6.00
2023-12-02T14:35:48.736Z,5.93
2023-12-02T14:38:37.408Z,7.10
2023-12-02T14:41:30.718Z,10.10
2023-12-02T14:44:19.944Z,4.60
2023-12-02T14:46:54.607Z,7.83
2023-12-02T14:49:24.994Z,7.10
2023-12-02T14:51:55.938Z,5.07
2023-12-02T14:54:33.641Z,5.60
2023-12-02T14:57:30.747Z,6.33
2023-12-02T15:00:08.888Z,7.03
2023-12-02T15:02:41.122Z,12.60
2023-12-02T15:05:09.723Z,7.30
2023-12-02T15:07:50.875Z,10.30
2023-12-02T15:10:28.730Z,8.63
2023-12-02T15:13:01.683Z,6.83
2023-12-02T15:15:35.278Z,8.40
2023-12-02T15:18:04.524Z,11.23
2023-12-02T15:20:35.510Z,9.20
2023-12-02T15:23:17.889Z,4.93
2023-12-02T15:25:48.692Z,8.07
2023-12-02T15:28:30.974Z,7.90
2023-12-02T15:31:13.034Z,12.63
2023-12-02T15:33:41.891Z,5.37
2023-12-02T15:36:12.035Z,5.50
2023-12-02T15:38:39.106Z,6.07
2023-12-02T15:41:07.214Z,6.73
2023-12-02T15:43:34.352Z,6.63
2023-12-02T15:46:01.271Z,9.23
2023-12-02T15:48:28.466Z,8.73
2023-12-02T15:50:55.377Z,5.50
2023-12-02T15:53:23.818Z,6.93
2023-12-02T15:55:52.103Z,5.50
2023-12-02T15:58:19.361Z,7.20
2023-12-02T16:00:46.400Z,6.30
2023-12-02T16:03:13.421Z,8.30
2023-12-02T16:05:40.450Z,6.97
2023-12-02T16:08:08.838Z,6.50
2023-12-02T16:10:35.863Z,7.00
2023-12-02T16:13:03.601Z,7.43
2023-12-02T16:15:33.755Z,6.67
2023-12-02T16:18:01.449Z,9.30
2023-12-02T16:20:28.625Z,8.43
2023-12-02T16:22:55.659Z,6.70
2023-12-02T16:25:22.639Z,6.93
2023-12-02T16:27:50.144Z,7.00
2023-12-02T16:30:18.706Z,6.33
2023-12-02T16:32:46.609Z,7.20
2023-12-02T16:35:13.949Z,5.93
2023-12-02T16:37:41.219Z,7.37
2023-12-02T16:40:09.549Z,7.27
2023-12-02T16:42:37.043Z,10.07
2023-12-02T16:45:16.138Z,8.40
2023-12-02T16:47:49.838Z,6.97
2023-12-02T16:50:38.028Z,9.43
2023-12-02T16:53:04.813Z,9.10
2023-12-02T16:55:35.993Z,8.47
2023-12-02T16:58:05.813Z,9.13
2023-12-02T17:00:37.928Z,6.97
2023-12-02T17:03:06.194Z,5.93
2023-12-02T17:05:33.180Z,8.00
2023-12-02T17:08:05.874Z,8.13
2023-12-02T17:10:45.244Z,6.17
2023-12-02T17:13:25.672Z,7.00
2023-12-02T17:15:53.750Z,6.77
2023-12-02T17:18:39.320Z,7.73
2023-12-02T17:21:07.218Z,7.10
2023-12-02T17:23:37.576Z,6.67
2023-12-02T17:26:04.793Z,7.87
2023-12-02T17:28:35.544Z,9.53
2023-12-02T17:31:02.568Z,9.13
2023-12-02T17:33:29.468Z,8.43
2023-12-02T17:35:56.423Z,7.90
2023-12-02T17:38:23.345Z,9.30
2023-12-02T17:40:50.260Z,11.30
2023-12-02T17:43:17.178Z,13.27
2023-12-02T17:45:44.026Z,9.97
2023-12-02T17:48:11.001Z,15.77
2023-12-02T17:50:37.970Z,11.80
2023-12-02T17:53:05.229Z,14.67
2023-12-02T17:55:32.082Z,12.13
2023-12-02T17:57:58.915Z,13.00
2023-12-02T18:00:25.917Z,11.30
2023-12-02T18:02:52.975Z,11.60
2023-12-02T18:05:19.987Z,11.73
2023-12-02T18:07:46.898Z,13.73
2023-12-02T18:10:13.845Z,24.93
2023-12-02T18:12:40.844Z,36.77
2023-12-02T18:15:08.118Z,35.03
2023-12-02T18:17:35.163Z,29.97
2023-12-02T18:20:06.658Z,18.97
2023-12-02T18:22:36.926Z,18.07
2023-12-02T18:25:04.071Z,26.43
2023-12-02T18:27:31.078Z,28.50
2023-12-02T18:29:58.054Z,24.90
2023-12-02T18:32:25.158Z,36.87
2023-12-02T18:34:52.475Z,24.60
2023-12-02T18:37:19.372Z,24.30
2023-12-02T18:39:46.557Z,22.87
2023-12-02T18:42:13.530Z,14.47
2023-12-02T18:44:41.648Z,18.90
2023-12-02T18:47:08.665Z,34.53
2023-12-02T18:49:35.604Z,27.97
2023-12-02T18:52:02.436Z,25.10
2023-12-02T18:54:29.316Z,31.27
2023-12-02T18:56:57.164Z,25.47
2023-12-02T18:59:23.985Z,25.73
2023-12-02T19:01:50.909Z,12.93
2023-12-02T19:04:17.885Z,10.40
2023-12-02T19:06:44.851Z,20.70
2023-12-02T19:09:11.951Z,22.23
2023-12-02T19:11:39.300Z,18.47
2023-12-02T19:14:06.384Z,26.33
2023-12-02T19:16:33.303Z,27.63
2023-12-02T19:19:00.746Z,64.40
2023-12-02T19:21:28.537Z,38.43
2023-12-02T19:23:55.434Z,20.37
2023-12-02T19:26:26.140Z,17.70
2023-12-02T19:28:53.044Z,20.90
2023-12-02T19:31:20.017Z,17.97
2023-12-02T19:33:46.897Z,27.40
2023-12-02T19:36:14.102Z,30.70
2023-12-02T19:38:41.275Z,22.03
2023-12-02T19:41:08.403Z,16.13
2023-12-02T19:43:35.551Z,14.47
2023-12-02T19:46:02.513Z,19.27
2023-12-02T19:48:29.500Z,18.17
2023-12-02T19:50:56.728Z,21.53
2023-12-02T19:53:23.627Z,12.87
2023-12-02T19:55:51.076Z,15.23
2023-12-02T19:58:17.912Z,15.90
2023-12-02T20:00:44.926Z,19.57
2023-12-02T20:03:12.013Z,24.80
2023-12-02T20:05:39.018Z,15.97
2023-12-02T20:08:06.416Z,14.83
2023-12-02T20:10:33.525Z,17.10
2023-12-02T20:13:00.972Z,21.10
2023-12-02T20:15:27.903Z,30.53
2023-12-02T20:17:54.829Z,21.57
2023-12-02T20:20:22.470Z,16.73
2023-12-02T20:22:50.428Z,20.00
2023-12-02T20:25:21.059Z,22.57
2023-12-02T20:27:48.077Z,31.03
2023-12-02T20:30:15.856Z,18.63
2023-12-02T20:32:42.850Z,21.13
2023-12-02T20:35:09.958Z,18.13
2023-12-02T20:37:37.134Z,14.77
2023-12-02T20:40:04.756Z,21.50
2023-12-02T20:42:31.937Z,21.03
2023-12-02T20:44:59.104Z,21.30
2023-12-02T20:47:26.097Z,13.30
2023-12-02T20:49:53.015Z,13.13
2023-12-02T20:52:20.125Z,12.37
2023-12-02T20:54:46.943Z,9.60
2023-12-02T20:57:13.847Z,11.03
2023-12-02T20:59:40.810Z,7.63
2023-12-02T21:02:07.725Z,6.40
2023-12-02T21:04:34.652Z,10.40
2023-12-02T21:07:01.755Z,8.00
2023-12-02T21:09:28.534Z,8.13
2023-12-02T21:11:55.498Z,11.70
2023-12-02T21:14:22.578Z,12.17
2023-12-02T21:16:50.149Z,12.33
2023-12-02T21:19:18.349Z,12.53
2023-12-02T21:21:45.481Z,17.17
2023-12-02T21:24:13.639Z,10.33
2023-12-02T21:26:41.235Z,9.57
2023-12-02T21:29:09.490Z,9.30
2023-12-02T21:31:39.058Z,8.63
2023-12-02T21:34:09.318Z,10.37
2023-12-02T21:36:36.334Z,9.67
2023-12-02T21:39:03.371Z,9.73
2023-12-02T21:41:32.269Z,7.67
2023-12-02T21:43:59.291Z,8.70
2023-12-02T21:46:31.187Z,9.47
2023-12-02T21:49:00.624Z,9.93
2023-12-02T21:51:33.355Z,8.20
2023-12-02T21:54:05.412Z,6.90
2023-12-02T21:56:45.664Z,7.60
2023-12-02T21:59:22.102Z,10.07
2023-12-02T22:01:56.543Z,11.60
2023-12-02T22:04:40.113Z,8.60
2023-12-02T22:07:13.539Z,7.87
2023-12-02T22:09:41.391Z,9.07
2023-12-02T22:12:37.877Z,6.13
2023-12-02T22:15:22.245Z,8.80
2023-12-02T22:17:49.662Z,6.93
2023-12-02T22:20:21.858Z,8.80
2023-12-02T22:23:06.126Z,8.37
2023-12-02T22:25:32.855Z,7.40
2023-12-02T22:28:05.103Z,6.93
2023-12-02T22:30:45.997Z,8.37
2023-12-02T22:33:15.769Z,13.33
2023-12-02T22:35:53.969Z,7.23
2023-12-02T22:38:38.917Z,8.43
2023-12-02T22:41:08.313Z,8.50
2023-12-02T22:43:41.480Z,8.80
2023-12-02T22:46:08.554Z,11.60
2023-12-02T22:48:46.020Z,13.10
2023-12-02T22:51:36.360Z,16.13
2023-12-02T22:54:11.612Z,10.13
2023-12-02T22:56:38.804Z,11.50
2023-12-02T22:59:08.722Z,11.43
2023-12-02T23:01:38.184Z,11.87
2023-12-02T23:04:34.530Z,11.30
2023-12-02T23:07:21.312Z,11.73
2023-12-02T23:09:51.408Z,10.93
2023-12-02T23:12:36.768Z,9.07
2023-12-02T23:15:25.912Z,7.57
2023-12-02T23:17:53.722Z,11.77
2023-12-02T23:20:29.476Z,14.73
2023-12-02T23:22:57.021Z,11.03
2023-12-02T23:25:26.031Z,11.00
2023-12-02T23:27:54.203Z,12.23
2023-12-02T23:30:21.891Z,10.67
2023-12-02T23:32:49.294Z,10.03
2023-12-02T23:35:22.130Z,10.30
2023-12-02T23:37:50.758Z,12.53
2023-12-02T23:40:27.633Z,11.03
2023-12-02T23:42:58.320Z,11.40
2023-12-02T23:45:25.576Z,11.83
2023-12-02T23:47:53.279Z,9.43
2023-12-02T23:50:21.001Z,12.67
2023-12-02T23:52:48.347Z,9.27
2023-12-02T23:55:15.684Z,11.03
2023-12-02T23:57:43.607Z,12.63
